createdAt,value
2022-10-04T01:03:28.656Z,9.02
2022-10-04T01:05:57.259Z,10.27
2022-10-04T01:08:29.927Z,9.25
2022-10-04T01:11:01.578Z,9.43
2022-10-04T01:13:40.351Z,9.07
2022-10-04T01:16:27.214Z,9.10
2022-10-04T01:18:53.894Z,8.82
2022-10-04T01:21:20.473Z,9.48
2022-10-04T01:23:50.788Z,9.43
2022-10-04T01:26:29.477Z,10.35
2022-10-04T01:28:57.043Z,9.68
2022-10-04T01:31:23.731Z,10.25
2022-10-04T01:33:50.348Z,9.65
2022-10-04T01:36:16.993Z,9.13
2022-10-04T01:38:43.609Z,10.05
2022-10-04T01:41:10.259Z,10.80
2022-10-04T01:43:38.599Z,9.32
2022-10-04T01:46:10.956Z,10.68
2022-10-04T01:48:37.804Z,11.68
2022-10-04T01:51:12.807Z,9.70
2022-10-04T01:53:46.082Z,9.57
2022-10-04T01:56:18.389Z,10.35
2022-10-04T01:58:58.351Z,9.63
2022-10-04T02:01:29.322Z,10.55
2022-10-04T02:04:02.513Z,9.93
2022-10-04T02:06:30.930Z,10.38
2022-10-04T02:08:57.696Z,10.38
2022-10-04T02:11:25.183Z,10.55
2022-10-04T02:13:52.931Z,9.82
2022-10-04T02:16:19.512Z,11.10
2022-10-04T02:18:46.173Z,11.77
2022-10-04T02:21:13.109Z,10.60
2022-10-04T02:23:39.730Z,11.57
2022-10-04T02:26:07.155Z,10.80
2022-10-04T02:28:34.094Z,10.98
2022-10-04T02:31:00.818Z,10.68
2022-10-04T02:33:27.461Z,10.80
2022-10-04T02:35:54.137Z,10.57
2022-10-04T02:38:28.737Z,11.48
2022-10-04T02:41:07.323Z,11.93
2022-10-04T02:43:40.242Z,11.32
2022-10-04T02:46:13.991Z,11.30
2022-10-04T02:48:44.428Z,10.40
2022-10-04T02:51:19.695Z,11.27
2022-10-04T02:53:50.416Z,10.63
2022-10-04T02:56:17.243Z,10.52
2022-10-04T02:58:43.869Z,10.63
2022-10-04T03:01:35.755Z,10.93
2022-10-04T03:04:02.384Z,10.43
2022-10-04T03:06:30.318Z,11.55
2022-10-04T03:08:58.578Z,11.27
2022-10-04T03:11:27.579Z,11.05
2022-10-04T03:13:55.911Z,10.93
2022-10-04T03:16:22.580Z,11.63
2022-10-04T03:18:49.389Z,11.57
2022-10-04T03:21:17.022Z,11.45
2022-10-04T03:23:43.807Z,11.25
2022-10-04T03:26:23.097Z,10.77
2022-10-04T03:28:49.762Z,10.43
2022-10-04T03:31:16.431Z,11.60
2022-10-04T03:33:43.302Z,10.63
2022-10-04T03:36:13.231Z,11.02
2022-10-04T03:38:39.916Z,11.65
2022-10-04T03:41:06.555Z,11.55
2022-10-04T03:43:33.443Z,11.73
2022-10-04T03:46:01.085Z,10.43
2022-10-04T03:48:33.395Z,11.82
2022-10-04T03:51:00.135Z,11.55
2022-10-04T03:53:37.611Z,11.25
2022-10-04T03:56:09.819Z,12.05
2022-10-04T03:58:36.416Z,12.40
2022-10-04T04:01:03.037Z,11.50
2022-10-04T04:03:29.771Z,12.82
2022-10-04T04:05:58.694Z,11.48
2022-10-04T04:08:36.405Z,13.90
2022-10-04T04:11:04.237Z,13.52
2022-10-04T04:14:09.342Z,13.30
2022-10-04T04:16:36.833Z,13.85
2022-10-04T04:19:04.638Z,13.20
2022-10-04T04:21:31.280Z,14.13
2022-10-04T04:24:15.189Z,13.18
2022-10-04T04:26:46.938Z,14.00
2022-10-04T04:29:31.718Z,13.73
2022-10-04T04:32:04.218Z,14.82
2022-10-04T04:34:32.449Z,14.00
2022-10-04T04:37:00.035Z,13.35
2022-10-04T04:39:26.998Z,14.63
2022-10-04T04:41:53.617Z,13.65
2022-10-04T04:44:26.998Z,12.05
2022-10-04T04:46:53.661Z,13.38
2022-10-04T04:49:20.315Z,13.02
2022-10-04T04:51:49.130Z,13.18
2022-10-04T04:54:15.765Z,13.63
2022-10-04T04:56:42.391Z,14.32
2022-10-04T04:59:08.995Z,13.38
2022-10-04T05:01:39.863Z,14.63
2022-10-04T05:04:18.124Z,13.45
2022-10-04T05:06:46.522Z,13.43
2022-10-04T05:09:29.455Z,13.13
2022-10-04T05:11:58.923Z,14.45
2022-10-04T05:14:25.924Z,13.73
2022-10-04T05:16:53.659Z,13.90
2022-10-04T05:19:34.245Z,14.10
2022-10-04T05:22:02.917Z,14.40
2022-10-04T05:24:31.758Z,17.50
2022-10-04T05:27:06.161Z,19.38
2022-10-04T05:29:35.728Z,16.45
2022-10-04T05:32:29.870Z,14.35
2022-10-04T05:34:56.518Z,12.68
2022-10-04T05:37:47.481Z,12.30
2022-10-04T05:40:15.122Z,12.73
2022-10-04T05:42:45.935Z,12.60
2022-10-04T05:45:28.067Z,13.10
2022-10-04T05:47:55.856Z,14.02
2022-10-04T05:50:38.090Z,14.50
2022-10-04T05:53:23.295Z,15.20
2022-10-04T05:56:18.557Z,13.90
2022-10-04T05:58:51.111Z,13.52
2022-10-04T06:01:33.145Z,14.68
2022-10-04T06:06:50.593Z,14.18
2022-10-04T06:09:44.639Z,14.88
2022-10-04T06:12:32.401Z,15.75
2022-10-04T06:15:47.718Z,16.27
2022-10-04T06:18:26.308Z,15.68
2022-10-04T06:21:13.142Z,14.88
2022-10-04T06:23:47.085Z,17.00
2022-10-04T06:26:18.935Z,17.55
2022-10-04T06:28:47.270Z,16.33
2022-10-04T06:31:22.776Z,16.70
2022-10-04T06:33:58.528Z,16.38
2022-10-04T06:37:04.296Z,14.00
2022-10-04T06:39:36.905Z,15.90
2022-10-04T06:42:06.397Z,16.02
2022-10-04T06:45:14.064Z,14.43
2022-10-04T06:47:49.533Z,15.68
2022-10-04T06:50:24.175Z,14.27
2022-10-04T06:53:26.176Z,14.63
2022-10-04T06:56:21.736Z,14.73
2022-10-04T06:58:56.254Z,14.43
2022-10-04T07:01:33.131Z,13.93
2022-10-04T07:04:05.735Z,13.25
2022-10-04T07:06:49.269Z,15.38
2022-10-04T07:09:25.703Z,15.65
2022-10-04T07:11:55.470Z,13.48
2022-10-04T07:16:51.612Z,12.55
2022-10-04T07:19:21.077Z,10.93
2022-10-04T07:22:06.539Z,11.52
2022-10-04T07:24:51.305Z,13.43
2022-10-04T07:27:21.659Z,13.98
2022-10-04T07:29:53.981Z,12.70
2022-10-04T07:32:48.009Z,13.30
2022-10-04T07:35:19.790Z,14.55
2022-10-04T07:37:58.188Z,12.52
2022-10-04T07:40:33.256Z,13.02
2022-10-04T07:43:03.151Z,12.00
2022-10-04T07:45:34.627Z,14.00
2022-10-04T07:48:15.137Z,11.45
2022-10-04T07:50:59.896Z,12.65
2022-10-04T07:53:55.431Z,13.25
2022-10-04T07:56:24.979Z,12.27
2022-10-04T07:59:24.879Z,13.07
2022-10-04T08:02:02.940Z,12.07
2022-10-04T08:04:48.024Z,12.00
2022-10-04T08:07:20.798Z,11.57
2022-10-04T08:10:13.912Z,11.05
2022-10-04T08:12:59.637Z,11.95
2022-10-04T08:15:46.310Z,10.85
2022-10-04T08:18:36.935Z,12.13
2022-10-04T08:21:10.373Z,12.07
2022-10-04T08:23:48.968Z,10.80
2022-10-04T08:26:49.485Z,12.55
2022-10-04T08:30:03.710Z,12.32
2022-10-04T08:32:52.653Z,12.27
2022-10-04T08:35:31.968Z,11.77
2022-10-04T08:38:01.396Z,11.52
2022-10-04T08:40:50.070Z,10.70
2022-10-04T08:43:45.801Z,11.02
2022-10-04T08:46:49.889Z,9.48
2022-10-04T08:49:38.329Z,9.77
2022-10-04T08:52:22.931Z,9.50
2022-10-04T08:55:20.603Z,9.15
2022-10-04T08:58:08.842Z,8.90
2022-10-04T09:01:14.693Z,9.13
2022-10-04T09:03:59.913Z,8.82
2022-10-04T09:06:58.719Z,7.90
2022-10-04T09:09:50.086Z,7.47
2022-10-04T09:12:42.648Z,6.97
2022-10-04T09:15:21.711Z,7.90
2022-10-04T09:17:55.044Z,6.32
2022-10-04T09:20:39.354Z,6.80
2022-10-04T09:23:32.278Z,5.82
2022-10-04T09:26:14.450Z,5.72
2022-10-04T09:29:05.098Z,5.25
2022-10-04T09:31:44.716Z,5.00
2022-10-04T09:34:11.312Z,4.72
2022-10-04T09:36:50.167Z,4.90
2022-10-04T09:39:55.813Z,4.85
2022-10-04T09:43:04.749Z,5.30
2022-10-04T09:45:44.548Z,4.82
2022-10-04T09:48:32.599Z,5.38
2022-10-04T09:51:05.199Z,4.82
2022-10-04T09:53:42.309Z,5.43
2022-10-04T09:57:00.089Z,4.60
2022-10-04T09:59:35.765Z,4.65
2022-10-04T10:02:36.255Z,4.18
2022-10-04T10:05:32.643Z,3.45
2022-10-04T10:08:29.355Z,4.30
2022-10-04T10:11:19.075Z,4.40
2022-10-04T10:13:57.713Z,4.00
2022-10-04T10:16:53.545Z,4.35
2022-10-04T10:19:41.992Z,4.30
2022-10-04T10:22:25.233Z,3.80
2022-10-04T10:25:08.358Z,3.83
2022-10-04T10:28:00.013Z,4.00
2022-10-04T10:31:21.475Z,3.67
2022-10-04T10:34:23.170Z,3.63
2022-10-04T10:36:59.094Z,3.92
2022-10-04T10:39:56.190Z,3.30
2022-10-04T10:42:49.399Z,4.30
2022-10-04T10:45:44.207Z,3.88
2022-10-04T10:48:35.698Z,3.05
2022-10-04T10:51:09.913Z,3.05
2022-10-04T10:54:14.549Z,3.45
2022-10-04T10:56:47.176Z,3.42
2022-10-04T10:59:51.368Z,3.47
2022-10-04T11:02:48.877Z,3.67
2022-10-04T11:05:44.211Z,3.80
2022-10-04T11:08:29.445Z,3.10
2022-10-04T11:11:29.709Z,3.38
2022-10-04T11:14:11.210Z,3.50
2022-10-04T11:17:15.578Z,3.40
2022-10-04T11:19:48.314Z,4.10
2022-10-04T11:22:30.570Z,3.58
2022-10-04T11:25:02.196Z,4.00
2022-10-04T11:27:39.385Z,3.40
2022-10-04T11:30:29.785Z,3.80
2022-10-04T11:33:23.888Z,3.47
2022-10-04T11:36:15.469Z,3.95
2022-10-04T11:39:20.641Z,4.30
2022-10-04T11:41:57.034Z,3.28
2022-10-04T11:44:35.812Z,3.42
2022-10-04T11:47:36.315Z,2.92
2022-10-04T11:50:11.748Z,3.30
2022-10-04T11:53:03.209Z,3.60
2022-10-04T11:55:53.896Z,3.17
2022-10-04T11:58:45.386Z,2.85
2022-10-04T12:01:12.542Z,3.20
2022-10-04T12:04:00.450Z,3.42
2022-10-04T12:06:43.458Z,2.83
2022-10-04T12:09:13.513Z,3.90
2022-10-04T12:11:46.141Z,3.35
2022-10-04T12:14:27.995Z,3.22
2022-10-04T12:17:19.559Z,3.58
2022-10-04T12:20:00.547Z,3.10
2022-10-04T12:22:29.576Z,3.83
2022-10-04T12:28:19.027Z,3.38
2022-10-04T12:30:59.073Z,3.60
2022-10-04T12:34:09.818Z,3.13
2022-10-04T12:36:52.321Z,3.00
2022-10-04T12:39:36.913Z,3.10
2022-10-04T12:42:20.660Z,3.50
2022-10-04T12:44:53.301Z,3.25
2022-10-04T12:47:51.751Z,2.88
2022-10-04T12:50:40.065Z,2.90
2022-10-04T12:53:12.629Z,2.88
2022-10-04T12:56:06.400Z,2.95
2022-10-04T12:58:53.322Z,3.00
2022-10-04T13:01:44.973Z,2.97
2022-10-04T13:04:23.880Z,2.80
2022-10-04T13:07:17.338Z,2.70
2022-10-04T13:10:24.734Z,3.97
2022-10-04T13:13:08.775Z,3.15
2022-10-04T13:18:48.276Z,2.85
2022-10-04T13:21:47.226Z,2.80
2022-10-04T13:24:34.949Z,3.08
2022-10-04T13:27:04.820Z,2.72
2022-10-04T13:29:57.552Z,2.83
2022-10-04T13:32:30.485Z,2.90
2022-10-04T13:35:02.043Z,3.13
2022-10-04T13:37:46.940Z,2.90
2022-10-04T13:40:35.317Z,3.50
2022-10-04T13:43:21.484Z,2.83
2022-10-04T13:46:09.399Z,3.58
2022-10-04T13:48:41.923Z,3.17
2022-10-04T13:51:30.075Z,3.00
2022-10-04T13:54:18.700Z,3.08
2022-10-04T13:57:22.352Z,2.42
2022-10-04T14:00:12.685Z,2.65
2022-10-04T14:02:40.405Z,2.88
2022-10-04T14:05:34.265Z,3.47
2022-10-04T14:08:12.744Z,3.35
2022-10-04T14:11:00.536Z,2.50
2022-10-04T14:13:42.407Z,2.88
2022-10-04T14:16:46.951Z,3.08
2022-10-04T14:19:41.296Z,3.15
2022-10-04T14:22:24.251Z,3.20
2022-10-04T14:25:28.697Z,3.17
2022-10-04T14:28:13.495Z,3.00
2022-10-04T14:31:15.523Z,2.88
2022-10-04T14:34:24.180Z,3.13
2022-10-04T14:37:13.004Z,2.40
2022-10-04T20:57:22.163Z,6.18
2022-10-04T20:59:48.796Z,6.43
2022-10-04T21:02:18.977Z,6.60
2022-10-04T21:18:45.712Z,6.20
2022-10-04T21:21:12.321Z,7.43
2022-10-04T21:23:38.980Z,7.50
2022-10-04T21:26:18.230Z,8.80
2022-10-04T21:28:44.983Z,7.03
2022-10-04T21:31:11.596Z,7.10
2022-10-04T21:33:38.225Z,6.18
2022-10-04T21:36:05.280Z,5.15
2022-10-04T21:38:31.967Z,6.20
2022-10-04T21:40:58.580Z,6.18
2022-10-04T21:43:25.483Z,5.72
2022-10-04T21:45:52.242Z,6.60
2022-10-04T21:48:18.890Z,6.15
2022-10-04T21:50:45.497Z,5.10
2022-10-04T21:53:12.147Z,6.13
2022-10-04T21:55:38.805Z,6.78
2022-10-04T21:58:05.483Z,5.18
2022-10-04T22:00:32.083Z,5.72
